sensor_id;sensor_type;location;lat;lon;timestamp;P1;durP1;ratioP1;P2;durP2;ratioP2
47960;SDS011;33721;48.852;9.936;2024-02-04T00:01:40;3.72;;;1.60;;
47960;SDS011;33721;48.852;9.936;2024-02-04T00:04:06;5.43;;;2.30;;
47960;SDS011;33721;48.852;9.936;2024-02-04T00:06:32;3.72;;;2.10;;
47960;SDS011;33721;48.852;9.936;2024-02-04T00:08:58;6.22;;;2.25;;
47960;SDS011;33721;48.852;9.936;2024-02-04T00:11:24;3.72;;;1.80;;
47960;SDS011;33721;48.852;9.936;2024-02-04T00:13:50;5.88;;;2.08;;
47960;SDS011;33721;48.852;9.936;2024-02-04T00:16:16;8.00;;;2.28;;
47960;SDS011;33721;48.852;9.936;2024-02-04T00:18:41;6.30;;;2.30;;
47960;SDS011;33721;48.852;9.936;2024-02-04T00:21:08;8.60;;;2.13;;
47960;SDS011;33721;48.852;9.936;2024-02-04T00:23:33;3.45;;;1.92;;
47960;SDS011;33721;48.852;9.936;2024-02-04T00:25:59;3.80;;;1.83;;
47960;SDS011;33721;48.852;9.936;2024-02-04T00:28:25;3.90;;;1.85;;
47960;SDS011;33721;48.852;9.936;2024-02-04T00:30:52;5.50;;;2.45;;
47960;SDS011;33721;48.852;9.936;2024-02-04T00:33:20;5.72;;;2.03;;
47960;SDS011;33721;48.852;9.936;2024-02-04T00:35:46;4.00;;;2.10;;
47960;SDS011;33721;48.852;9.936;2024-02-04T00:38:12;3.33;;;1.98;;
47960;SDS011;33721;48.852;9.936;2024-02-04T00:40:38;5.38;;;2.30;;
47960;SDS011;33721;48.852;9.936;2024-02-04T00:43:03;4.55;;;2.40;;
47960;SDS011;33721;48.852;9.936;2024-02-04T00:45:29;10.05;;;2.67;;
47960;SDS011;33721;48.852;9.936;2024-02-04T00:47:54;7.85;;;2.63;;
47960;SDS011;33721;48.852;9.936;2024-02-04T00:50:20;4.95;;;2.75;;
47960;SDS011;33721;48.852;9.936;2024-02-04T00:52:46;4.35;;;2.10;;
47960;SDS011;33721;48.852;9.936;2024-02-04T00:55:11;4.95;;;2.25;;
47960;SDS011;33721;48.852;9.936;2024-02-04T00:57:37;5.28;;;2.47;;
47960;SDS011;33721;48.852;9.936;2024-02-04T01:00:03;5.50;;;2.80;;
47960;SDS011;33721;48.852;9.936;2024-02-04T01:02:29;5.25;;;2.10;;
47960;SDS011;33721;48.852;9.936;2024-02-04T01:04:55;4.15;;;1.90;;
47960;SDS011;33721;48.852;9.936;2024-02-04T01:07:21;3.85;;;2.35;;
47960;SDS011;33721;48.852;9.936;2024-02-04T01:09:46;4.22;;;2.30;;
47960;SDS011;33721;48.852;9.936;2024-02-04T01:12:12;5.07;;;2.25;;
47960;SDS011;33721;48.852;9.936;2024-02-04T01:14:38;3.15;;;1.67;;
47960;SDS011;33721;48.852;9.936;2024-02-04T01:17:03;3.88;;;1.83;;
47960;SDS011;33721;48.852;9.936;2024-02-04T01:19:29;4.60;;;1.90;;
47960;SDS011;33721;48.852;9.936;2024-02-04T01:21:54;4.97;;;2.05;;
47960;SDS011;33721;48.852;9.936;2024-02-04T01:24:20;3.60;;;1.70;;
47960;SDS011;33721;48.852;9.936;2024-02-04T01:26:46;3.05;;;1.58;;
47960;SDS011;33721;48.852;9.936;2024-02-04T01:29:11;2.90;;;1.58;;
47960;SDS011;33721;48.852;9.936;2024-02-04T01:31:37;3.10;;;1.50;;
47960;SDS011;33721;48.852;9.936;2024-02-04T01:34:02;2.50;;;1.50;;
47960;SDS011;33721;48.852;9.936;2024-02-04T01:36:28;2.47;;;1.48;;
47960;SDS011;33721;48.852;9.936;2024-02-04T01:38:55;2.58;;;1.65;;
47960;SDS011;33721;48.852;9.936;2024-02-04T01:41:21;3.85;;;1.90;;
47960;SDS011;33721;48.852;9.936;2024-02-04T01:43:46;4.80;;;1.77;;
47960;SDS011;33721;48.852;9.936;2024-02-04T01:46:12;3.55;;;1.90;;
47960;SDS011;33721;48.852;9.936;2024-02-04T01:48:38;4.45;;;1.35;;
47960;SDS011;33721;48.852;9.936;2024-02-04T01:51:04;4.55;;;1.77;;
47960;SDS011;33721;48.852;9.936;2024-02-04T01:53:31;2.83;;;1.35;;
47960;SDS011;33721;48.852;9.936;2024-02-04T01:55:59;3.28;;;1.67;;
47960;SDS011;33721;48.852;9.936;2024-02-04T01:58:25;3.63;;;1.75;;
47960;SDS011;33721;48.852;9.936;2024-02-04T02:00:50;5.13;;;1.50;;
47960;SDS011;33721;48.852;9.936;2024-02-04T02:03:17;2.00;;;1.35;;
47960;SDS011;33721;48.852;9.936;2024-02-04T02:05:44;3.03;;;1.50;;
47960;SDS011;33721;48.852;9.936;2024-02-04T02:08:11;4.15;;;1.33;;
47960;SDS011;33721;48.852;9.936;2024-02-04T02:10:37;3.20;;;1.52;;
47960;SDS011;33721;48.852;9.936;2024-02-04T02:13:09;2.78;;;1.42;;
47960;SDS011;33721;48.852;9.936;2024-02-04T02:16:02;2.85;;;1.48;;
47960;SDS011;33721;48.852;9.936;2024-02-04T02:18:47;2.47;;;1.50;;
47960;SDS011;33721;48.852;9.936;2024-02-04T02:21:22;3.30;;;1.70;;
47960;SDS011;33721;48.852;9.936;2024-02-04T02:24:14;2.88;;;1.10;;
47960;SDS011;33721;48.852;9.936;2024-02-04T02:26:51;2.50;;;1.40;;
47960;SDS011;33721;48.852;9.936;2024-02-04T02:29:18;2.33;;;1.25;;
47960;SDS011;33721;48.852;9.936;2024-02-04T02:31:43;2.92;;;1.40;;
47960;SDS011;33721;48.852;9.936;2024-02-04T02:34:10;3.83;;;1.67;;
47960;SDS011;33721;48.852;9.936;2024-02-04T02:36:46;2.70;;;1.23;;
47960;SDS011;33721;48.852;9.936;2024-02-04T02:39:37;2.80;;;1.20;;
47960;SDS011;33721;48.852;9.936;2024-02-04T02:42:13;2.35;;;1.30;;
47960;SDS011;33721;48.852;9.936;2024-02-04T02:44:41;2.58;;;1.20;;
47960;SDS011;33721;48.852;9.936;2024-02-04T02:47:09;4.18;;;1.20;;
47960;SDS011;33721;48.852;9.936;2024-02-04T02:49:35;3.08;;;1.20;;
47960;SDS011;33721;48.852;9.936;2024-02-04T02:52:00;6.07;;;1.45;;
47960;SDS011;33721;48.852;9.936;2024-02-04T02:54:26;3.72;;;1.60;;
47960;SDS011;33721;48.852;9.936;2024-02-04T02:56:52;2.97;;;1.45;;
47960;SDS011;33721;48.852;9.936;2024-02-04T02:59:17;2.75;;;1.23;;
47960;SDS011;33721;48.852;9.936;2024-02-04T03:01:43;3.60;;;1.50;;
47960;SDS011;33721;48.852;9.936;2024-02-04T03:04:08;3.65;;;1.50;;
47960;SDS011;33721;48.852;9.936;2024-02-04T03:06:34;2.30;;;1.35;;
47960;SDS011;33721;48.852;9.936;2024-02-04T03:09:00;2.92;;;1.50;;
47960;SDS011;33721;48.852;9.936;2024-02-04T03:11:26;2.85;;;1.50;;
47960;SDS011;33721;48.852;9.936;2024-02-04T03:13:51;2.72;;;1.15;;
47960;SDS011;33721;48.852;9.936;2024-02-04T03:16:17;3.38;;;1.50;;
47960;SDS011;33721;48.852;9.936;2024-02-04T03:18:43;4.00;;;1.67;;
47960;SDS011;33721;48.852;9.936;2024-02-04T03:21:15;2.67;;;1.40;;
47960;SDS011;33721;48.852;9.936;2024-02-04T03:23:42;2.97;;;1.40;;
47960;SDS011;33721;48.852;9.936;2024-02-04T03:26:08;2.20;;;1.30;;
47960;SDS011;33721;48.852;9.936;2024-02-04T03:28:34;3.47;;;1.55;;
47960;SDS011;33721;48.852;9.936;2024-02-04T03:31:00;6.00;;;1.60;;
47960;SDS011;33721;48.852;9.936;2024-02-04T03:33:25;3.05;;;1.10;;
47960;SDS011;33721;48.852;9.936;2024-02-04T03:35:51;3.05;;;1.55;;
47960;SDS011;33721;48.852;9.936;2024-02-04T03:38:17;2.78;;;1.25;;
47960;SDS011;33721;48.852;9.936;2024-02-04T03:40:42;3.08;;;1.63;;
47960;SDS011;33721;48.852;9.936;2024-02-04T03:43:08;3.65;;;1.48;;
47960;SDS011;33721;48.852;9.936;2024-02-04T03:45:37;4.40;;;1.75;;
47960;SDS011;33721;48.852;9.936;2024-02-04T03:48:03;3.10;;;1.52;;
47960;SDS011;33721;48.852;9.936;2024-02-04T03:50:37;3.38;;;1.50;;
47960;SDS011;33721;48.852;9.936;2024-02-04T03:53:02;3.83;;;1.42;;
47960;SDS011;33721;48.852;9.936;2024-02-04T03:55:28;2.17;;;1.30;;
47960;SDS011;33721;48.852;9.936;2024-02-04T03:57:54;2.38;;;1.30;;
47960;SDS011;33721;48.852;9.936;2024-02-04T04:00:22;3.05;;;1.55;;
47960;SDS011;33721;48.852;9.936;2024-02-04T04:02:47;3.42;;;1.30;;
47960;SDS011;33721;48.852;9.936;2024-02-04T04:05:13;2.53;;;1.40;;
47960;SDS011;33721;48.852;9.936;2024-02-04T04:07:39;3.17;;;1.38;;
47960;SDS011;33721;48.852;9.936;2024-02-04T04:10:05;2.42;;;1.50;;
47960;SDS011;33721;48.852;9.936;2024-02-04T04:12:31;2.58;;;1.30;;
47960;SDS011;33721;48.852;9.936;2024-02-04T04:14:57;2.50;;;1.40;;
47960;SDS011;33721;48.852;9.936;2024-02-04T04:17:22;3.13;;;1.33;;
47960;SDS011;33721;48.852;9.936;2024-02-04T04:19:48;2.95;;;1.30;;
47960;SDS011;33721;48.852;9.936;2024-02-04T04:22:13;2.90;;;1.48;;
47960;SDS011;33721;48.852;9.936;2024-02-04T04:24:39;2.97;;;1.27;;
47960;SDS011;33721;48.852;9.936;2024-02-04T04:27:04;3.85;;;1.33;;
47960;SDS011;33721;48.852;9.936;2024-02-04T04:29:30;2.80;;;1.35;;
47960;SDS011;33721;48.852;9.936;2024-02-04T04:31:56;2.53;;;1.20;;
47960;SDS011;33721;48.852;9.936;2024-02-04T04:34:21;2.92;;;1.33;;
47960;SDS011;33721;48.852;9.936;2024-02-04T04:36:47;2.83;;;1.45;;
47960;SDS011;33721;48.852;9.936;2024-02-04T04:39:12;3.08;;;1.40;;
47960;SDS011;33721;48.852;9.936;2024-02-04T04:41:39;2.97;;;1.30;;
47960;SDS011;33721;48.852;9.936;2024-02-04T04:44:06;2.38;;;1.08;;
47960;SDS011;33721;48.852;9.936;2024-02-04T04:46:31;3.72;;;1.40;;
47960;SDS011;33721;48.852;9.936;2024-02-04T04:48:57;2.63;;;1.20;;
47960;SDS011;33721;48.852;9.936;2024-02-04T04:51:23;2.70;;;1.50;;
47960;SDS011;33721;48.852;9.936;2024-02-04T04:53:49;2.85;;;1.50;;
47960;SDS011;33721;48.852;9.936;2024-02-04T04:56:15;1.98;;;1.05;;
47960;SDS011;33721;48.852;9.936;2024-02-04T04:58:40;3.83;;;1.50;;
47960;SDS011;33721;48.852;9.936;2024-02-04T05:01:06;3.17;;;1.38;;
47960;SDS011;33721;48.852;9.936;2024-02-04T05:03:32;3.47;;;1.20;;
47960;SDS011;33721;48.852;9.936;2024-02-04T05:05:57;3.30;;;1.20;;
47960;SDS011;33721;48.852;9.936;2024-02-04T05:08:23;4.05;;;1.50;;
47960;SDS011;33721;48.852;9.936;2024-02-04T05:10:49;3.72;;;1.30;;
47960;SDS011;33721;48.852;9.936;2024-02-04T05:13:14;2.63;;;1.25;;
47960;SDS011;33721;48.852;9.936;2024-02-04T05:15:40;2.58;;;1.08;;
47960;SDS011;33721;48.852;9.936;2024-02-04T05:18:06;1.90;;;1.15;;
47960;SDS011;33721;48.852;9.936;2024-02-04T05:20:31;2.72;;;1.40;;
47960;SDS011;33721;48.852;9.936;2024-02-04T05:22:57;2.33;;;1.35;;
47960;SDS011;33721;48.852;9.936;2024-02-04T05:25:23;2.75;;;1.15;;
47960;SDS011;33721;48.852;9.936;2024-02-04T05:27:50;2.42;;;1.38;;
47960;SDS011;33721;48.852;9.936;2024-02-04T05:30:16;3.00;;;1.35;;
47960;SDS011;33721;48.852;9.936;2024-02-04T05:32:41;2.85;;;1.30;;
47960;SDS011;33721;48.852;9.936;2024-02-04T05:35:09;3.70;;;1.17;;
47960;SDS011;33721;48.852;9.936;2024-02-04T05:37:35;3.05;;;1.45;;
47960;SDS011;33721;48.852;9.936;2024-02-04T05:40:01;2.72;;;1.25;;
47960;SDS011;33721;48.852;9.936;2024-02-04T05:42:28;1.80;;;1.00;;
47960;SDS011;33721;48.852;9.936;2024-02-04T05:44:53;2.35;;;1.17;;
47960;SDS011;33721;48.852;9.936;2024-02-04T05:47:19;2.42;;;1.35;;
47960;SDS011;33721;48.852;9.936;2024-02-04T05:49:45;5.07;;;1.33;;
47960;SDS011;33721;48.852;9.936;2024-02-04T05:52:11;3.15;;;1.30;;
47960;SDS011;33721;48.852;9.936;2024-02-04T05:54:37;2.47;;;1.17;;
47960;SDS011;33721;48.852;9.936;2024-02-04T05:57:06;2.65;;;1.20;;
47960;SDS011;33721;48.852;9.936;2024-02-04T05:59:35;2.22;;;1.10;;
47960;SDS011;33721;48.852;9.936;2024-02-04T06:02:00;4.10;;;1.40;;
47960;SDS011;33721;48.852;9.936;2024-02-04T06:04:26;3.85;;;1.23;;
47960;SDS011;33721;48.852;9.936;2024-02-04T06:06:51;4.07;;;1.10;;
47960;SDS011;33721;48.852;9.936;2024-02-04T06:09:17;2.67;;;1.10;;
47960;SDS011;33721;48.852;9.936;2024-02-04T06:11:46;3.50;;;1.40;;
47960;SDS011;33721;48.852;9.936;2024-02-04T06:14:12;2.53;;;1.08;;
47960;SDS011;33721;48.852;9.936;2024-02-04T06:16:38;2.70;;;1.10;;
47960;SDS011;33721;48.852;9.936;2024-02-04T06:19:03;5.07;;;1.27;;
47960;SDS011;33721;48.852;9.936;2024-02-04T06:21:29;2.90;;;1.25;;
47960;SDS011;33721;48.852;9.936;2024-02-04T06:23:55;4.93;;;1.25;;
47960;SDS011;33721;48.852;9.936;2024-02-04T06:26:20;3.30;;;1.30;;
47960;SDS011;33721;48.852;9.936;2024-02-04T06:28:46;1.92;;;1.00;;
47960;SDS011;33721;48.852;9.936;2024-02-04T06:31:13;1.98;;;0.93;;
47960;SDS011;33721;48.852;9.936;2024-02-04T06:33:39;1.73;;;0.88;;
47960;SDS011;33721;48.852;9.936;2024-02-04T06:36:11;5.50;;;1.30;;
47960;SDS011;33721;48.852;9.936;2024-02-04T06:38:36;2.35;;;1.10;;
47960;SDS011;33721;48.852;9.936;2024-02-04T06:41:02;1.67;;;0.70;;
47960;SDS011;33721;48.852;9.936;2024-02-04T06:43:28;1.85;;;0.80;;
47960;SDS011;33721;48.852;9.936;2024-02-04T06:45:53;2.42;;;0.82;;
47960;SDS011;33721;48.852;9.936;2024-02-04T06:48:19;3.03;;;1.23;;
47960;SDS011;33721;48.852;9.936;2024-02-04T06:50:45;2.22;;;0.93;;
47960;SDS011;33721;48.852;9.936;2024-02-04T06:53:12;3.17;;;0.73;;
47960;SDS011;33721;48.852;9.936;2024-02-04T06:55:38;3.63;;;0.80;;
47960;SDS011;33721;48.852;9.936;2024-02-04T06:58:04;2.20;;;0.98;;
47960;SDS011;33721;48.852;9.936;2024-02-04T07:00:30;2.72;;;1.10;;
47960;SDS011;33721;48.852;9.936;2024-02-04T07:02:55;2.50;;;0.85;;
47960;SDS011;33721;48.852;9.936;2024-02-04T07:05:21;2.42;;;0.90;;
47960;SDS011;33721;48.852;9.936;2024-02-04T07:07:47;1.40;;;0.77;;
47960;SDS011;33721;48.852;9.936;2024-02-04T07:10:14;2.72;;;1.10;;
47960;SDS011;33721;48.852;9.936;2024-02-04T07:12:40;2.25;;;0.90;;
47960;SDS011;33721;48.852;9.936;2024-02-04T07:15:06;3.03;;;1.10;;
47960;SDS011;33721;48.852;9.936;2024-02-04T07:17:33;1.67;;;1.20;;
47960;SDS011;33721;48.852;9.936;2024-02-04T07:19:59;1.73;;;0.70;;
47960;SDS011;33721;48.852;9.936;2024-02-04T07:22:26;2.75;;;1.13;;
47960;SDS011;33721;48.852;9.936;2024-02-04T07:24:52;2.28;;;0.90;;
47960;SDS011;33721;48.852;9.936;2024-02-04T07:27:17;2.97;;;1.30;;
47960;SDS011;33721;48.852;9.936;2024-02-04T07:29:43;3.35;;;1.33;;
47960;SDS011;33721;48.852;9.936;2024-02-04T07:32:08;2.63;;;1.20;;
47960;SDS011;33721;48.852;9.936;2024-02-04T07:34:34;4.45;;;1.15;;
47960;SDS011;33721;48.852;9.936;2024-02-04T07:37:00;2.15;;;1.20;;
47960;SDS011;33721;48.852;9.936;2024-02-04T07:39:25;3.13;;;1.00;;
47960;SDS011;33721;48.852;9.936;2024-02-04T07:41:51;1.85;;;0.82;;
47960;SDS011;33721;48.852;9.936;2024-02-04T07:44:19;1.95;;;0.88;;
47960;SDS011;33721;48.852;9.936;2024-02-04T07:46:44;2.45;;;1.10;;
47960;SDS011;33721;48.852;9.936;2024-02-04T07:49:10;2.35;;;1.15;;
47960;SDS011;33721;48.852;9.936;2024-02-04T07:51:35;2.42;;;0.93;;
47960;SDS011;33721;48.852;9.936;2024-02-04T07:54:02;2.10;;;1.08;;
47960;SDS011;33721;48.852;9.936;2024-02-04T07:56:29;2.08;;;1.00;;
47960;SDS011;33721;48.852;9.936;2024-02-04T07:58:54;3.05;;;1.23;;
47960;SDS011;33721;48.852;9.936;2024-02-04T08:01:20;1.88;;;0.80;;
47960;SDS011;33721;48.852;9.936;2024-02-04T08:03:45;1.75;;;1.02;;
47960;SDS011;33721;48.852;9.936;2024-02-04T08:06:12;1.88;;;0.77;;
47960;SDS011;33721;48.852;9.936;2024-02-04T08:08:37;1.08;;;0.57;;
47960;SDS011;33721;48.852;9.936;2024-02-04T08:11:03;2.58;;;0.80;;
47960;SDS011;33721;48.852;9.936;2024-02-04T08:13:29;2.47;;;1.00;;
47960;SDS011;33721;48.852;9.936;2024-02-04T08:15:54;1.35;;;0.77;;
47960;SDS011;33721;48.852;9.936;2024-02-04T08:18:20;4.20;;;1.17;;
47960;SDS011;33721;48.852;9.936;2024-02-04T08:20:46;2.00;;;0.90;;
47960;SDS011;33721;48.852;9.936;2024-02-04T08:23:11;2.13;;;0.90;;
47960;SDS011;33721;48.852;9.936;2024-02-04T08:25:37;2.63;;;0.80;;
47960;SDS011;33721;48.852;9.936;2024-02-04T08:28:02;1.83;;;0.70;;
47960;SDS011;33721;48.852;9.936;2024-02-04T08:30:29;2.05;;;0.90;;
47960;SDS011;33721;48.852;9.936;2024-02-04T08:32:55;1.70;;;0.88;;
47960;SDS011;33721;48.852;9.936;2024-02-04T08:35:20;2.13;;;0.77;;
47960;SDS011;33721;48.852;9.936;2024-02-04T08:37:46;1.30;;;0.60;;
47960;SDS011;33721;48.852;9.936;2024-02-04T08:40:12;2.00;;;0.70;;
47960;SDS011;33721;48.852;9.936;2024-02-04T08:42:38;1.42;;;0.70;;
47960;SDS011;33721;48.852;9.936;2024-02-04T08:45:03;2.35;;;0.65;;
47960;SDS011;33721;48.852;9.936;2024-02-04T08:47:30;3.35;;;0.77;;
47960;SDS011;33721;48.852;9.936;2024-02-04T08:49:55;3.58;;;0.88;;
47960;SDS011;33721;48.852;9.936;2024-02-04T08:52:22;2.08;;;0.88;;
47960;SDS011;33721;48.852;9.936;2024-02-04T08:54:49;1.50;;;0.70;;
47960;SDS011;33721;48.852;9.936;2024-02-04T08:57:15;1.77;;;0.70;;
47960;SDS011;33721;48.852;9.936;2024-02-04T08:59:41;1.58;;;0.70;;
47960;SDS011;33721;48.852;9.936;2024-02-04T09:02:07;1.50;;;0.55;;
47960;SDS011;33721;48.852;9.936;2024-02-04T09:04:33;3.15;;;0.60;;
47960;SDS011;33721;48.852;9.936;2024-02-04T09:07:05;1.58;;;0.60;;
47960;SDS011;33721;48.852;9.936;2024-02-04T09:09:31;1.38;;;0.60;;
47960;SDS011;33721;48.852;9.936;2024-02-04T09:11:57;1.02;;;0.50;;
47960;SDS011;33721;48.852;9.936;2024-02-04T09:14:23;2.40;;;1.45;;
47960;SDS011;33721;48.852;9.936;2024-02-04T09:16:48;1.83;;;0.47;;
47960;SDS011;33721;48.852;9.936;2024-02-04T09:19:14;0.80;;;0.40;;
47960;SDS011;33721;48.852;9.936;2024-02-04T09:21:39;0.88;;;0.52;;
47960;SDS011;33721;48.852;9.936;2024-02-04T09:24:05;0.77;;;0.38;;
47960;SDS011;33721;48.852;9.936;2024-02-04T09:26:31;0.82;;;0.47;;
47960;SDS011;33721;48.852;9.936;2024-02-04T09:28:56;3.58;;;0.63;;
47960;SDS011;33721;48.852;9.936;2024-02-04T09:31:22;0.88;;;0.50;;
47960;SDS011;33721;48.852;9.936;2024-02-04T09:33:48;1.48;;;0.40;;
47960;SDS011;33721;48.852;9.936;2024-02-04T09:36:13;0.82;;;0.40;;
47960;SDS011;33721;48.852;9.936;2024-02-04T09:38:39;0.50;;;0.20;;
47960;SDS011;33721;48.852;9.936;2024-02-04T09:41:05;2.08;;;0.60;;
47960;SDS011;33721;48.852;9.936;2024-02-04T09:43:33;3.00;;;0.70;;
47960;SDS011;33721;48.852;9.936;2024-02-04T09:46:00;1.35;;;0.45;;
47960;SDS011;33721;48.852;9.936;2024-02-04T09:48:27;3.15;;;0.52;;
47960;SDS011;33721;48.852;9.936;2024-02-04T09:50:56;2.92;;;0.70;;
47960;SDS011;33721;48.852;9.936;2024-02-04T09:53:28;2.50;;;0.60;;
47960;SDS011;33721;48.852;9.936;2024-02-04T09:55:59;1.63;;;0.45;;
47960;SDS011;33721;48.852;9.936;2024-02-04T09:58:27;0.70;;;0.50;;
47960;SDS011;33721;48.852;9.936;2024-02-04T10:00:52;1.23;;;0.45;;
47960;SDS011;33721;48.852;9.936;2024-02-04T10:03:19;0.85;;;0.40;;
47960;SDS011;33721;48.852;9.936;2024-02-04T10:05:45;2.03;;;0.50;;
47960;SDS011;33721;48.852;9.936;2024-02-04T10:08:11;4.05;;;0.60;;
47960;SDS011;33721;48.852;9.936;2024-02-04T10:10:38;3.00;;;0.60;;
47960;SDS011;33721;48.852;9.936;2024-02-04T10:13:10;1.70;;;0.47;;
47960;SDS011;33721;48.852;9.936;2024-02-04T10:15:36;3.03;;;0.63;;
47960;SDS011;33721;48.852;9.936;2024-02-04T10:18:05;1.27;;;0.50;;
47960;SDS011;33721;48.852;9.936;2024-02-04T10:22:58;0.68;;;0.32;;
47960;SDS011;33721;48.852;9.936;2024-02-04T10:25:24;1.27;;;0.60;;
47960;SDS011;33721;48.852;9.936;2024-02-04T10:27:50;0.55;;;0.30;;
47960;SDS011;33721;48.852;9.936;2024-02-04T10:30:18;1.55;;;0.40;;
47960;SDS011;33721;48.852;9.936;2024-02-04T10:32:45;1.55;;;0.50;;
47960;SDS011;33721;48.852;9.936;2024-02-04T10:35:11;1.10;;;0.60;;
47960;SDS011;33721;48.852;9.936;2024-02-04T10:37:37;0.98;;;0.45;;
47960;SDS011;33721;48.852;9.936;2024-02-04T10:40:02;0.50;;;0.30;;
47960;SDS011;33721;48.852;9.936;2024-02-04T10:42:29;1.20;;;0.65;;
47960;SDS011;33721;48.852;9.936;2024-02-04T10:44:56;1.00;;;0.40;;
47960;SDS011;33721;48.852;9.936;2024-02-04T10:47:24;1.58;;;0.60;;
47960;SDS011;33721;48.852;9.936;2024-02-04T10:49:55;1.25;;;0.50;;
47960;SDS011;33721;48.852;9.936;2024-02-04T10:52:23;2.33;;;0.73;;
47960;SDS011;33721;48.852;9.936;2024-02-04T10:54:52;1.55;;;0.60;;
47960;SDS011;33721;48.852;9.936;2024-02-04T10:57:21;2.03;;;0.80;;
47960;SDS011;33721;48.852;9.936;2024-02-04T10:59:48;1.23;;;0.60;;
47960;SDS011;33721;48.852;9.936;2024-02-04T11:02:15;0.98;;;0.50;;
47960;SDS011;33721;48.852;9.936;2024-02-04T11:04:42;2.75;;;0.75;;
47960;SDS011;33721;48.852;9.936;2024-02-04T11:07:09;1.40;;;0.60;;
47960;SDS011;33721;48.852;9.936;2024-02-04T11:09:39;1.58;;;0.70;;
47960;SDS011;33721;48.852;9.936;2024-02-04T11:12:06;1.92;;;0.60;;
47960;SDS011;33721;48.852;9.936;2024-02-04T11:14:37;1.55;;;0.60;;
47960;SDS011;33721;48.852;9.936;2024-02-04T11:19:59;2.20;;;0.52;;
47960;SDS011;33721;48.852;9.936;2024-02-04T11:25:44;2.47;;;0.98;;
47960;SDS011;33721;48.852;9.936;2024-02-04T11:28:21;3.47;;;0.43;;
47960;SDS011;33721;48.852;9.936;2024-02-04T11:30:48;2.08;;;0.80;;
47960;SDS011;33721;48.852;9.936;2024-02-04T11:33:18;1.25;;;0.52;;
47960;SDS011;33721;48.852;9.936;2024-02-04T11:35:44;1.35;;;0.60;;
47960;SDS011;33721;48.852;9.936;2024-02-04T11:38:10;1.17;;;0.38;;
47960;SDS011;33721;48.852;9.936;2024-02-04T11:40:38;1.33;;;0.63;;
47960;SDS011;33721;48.852;9.936;2024-02-04T11:43:05;3.13;;;0.60;;
47960;SDS011;33721;48.852;9.936;2024-02-04T11:45:31;1.73;;;0.60;;
47960;SDS011;33721;48.852;9.936;2024-02-04T11:48:00;1.67;;;0.50;;
47960;SDS011;33721;48.852;9.936;2024-02-04T11:50:29;1.00;;;0.40;;
47960;SDS011;33721;48.852;9.936;2024-02-04T11:53:29;1.85;;;0.57;;
47960;SDS011;33721;48.852;9.936;2024-02-04T11:55:48;1.33;;;0.90;;
47960;SDS011;33721;48.852;9.936;2024-02-04T11:58:18;1.02;;;0.57;;
47960;SDS011;33721;48.852;9.936;2024-02-04T12:00:45;1.80;;;0.50;;
47960;SDS011;33721;48.852;9.936;2024-02-04T12:03:11;1.67;;;0.77;;
47960;SDS011;33721;48.852;9.936;2024-02-04T12:05:37;2.92;;;0.65;;
47960;SDS011;33721;48.852;9.936;2024-02-04T12:08:06;3.08;;;0.57;;
47960;SDS011;33721;48.852;9.936;2024-02-04T12:10:33;1.10;;;0.60;;
47960;SDS011;33721;48.852;9.936;2024-02-04T12:13:03;2.63;;;0.80;;
47960;SDS011;33721;48.852;9.936;2024-02-04T12:15:30;0.95;;;0.50;;
47960;SDS011;33721;48.852;9.936;2024-02-04T12:18:06;1.25;;;0.63;;
47960;SDS011;33721;48.852;9.936;2024-02-04T12:20:32;4.07;;;0.70;;
47960;SDS011;33721;48.852;9.936;2024-02-04T12:22:58;1.92;;;0.77;;
47960;SDS011;33721;48.852;9.936;2024-02-04T12:25:24;2.13;;;0.50;;
47960;SDS011;33721;48.852;9.936;2024-02-04T12:27:52;2.20;;;0.50;;
47960;SDS011;33721;48.852;9.936;2024-02-04T12:30:18;1.52;;;0.95;;
47960;SDS011;33721;48.852;9.936;2024-02-04T12:32:43;1.80;;;0.77;;
47960;SDS011;33721;48.852;9.936;2024-02-04T12:35:15;1.30;;;0.45;;
47960;SDS011;33721;48.852;9.936;2024-02-04T12:37:56;2.67;;;0.70;;
47960;SDS011;33721;48.852;9.936;2024-02-04T12:42:56;0.93;;;0.55;;
47960;SDS011;33721;48.852;9.936;2024-02-04T12:45:22;0.68;;;0.40;;
47960;SDS011;33721;48.852;9.936;2024-02-04T12:47:49;1.52;;;0.63;;
47960;SDS011;33721;48.852;9.936;2024-02-04T12:50:15;2.00;;;0.68;;
47960;SDS011;33721;48.852;9.936;2024-02-04T12:52:43;1.02;;;0.40;;
47960;SDS011;33721;48.852;9.936;2024-02-04T12:55:27;1.48;;;0.60;;
47960;SDS011;33721;48.852;9.936;2024-02-04T13:00:30;1.73;;;0.63;;
47960;SDS011;33721;48.852;9.936;2024-02-04T13:02:57;2.28;;;0.80;;
47960;SDS011;33721;48.852;9.936;2024-02-04T13:05:23;1.70;;;0.55;;
47960;SDS011;33721;48.852;9.936;2024-02-04T13:07:54;0.90;;;0.50;;
47960;SDS011;33721;48.852;9.936;2024-02-04T13:10:21;1.35;;;0.60;;
47960;SDS011;33721;48.852;9.936;2024-02-04T13:13:04;3.05;;;0.57;;
47960;SDS011;33721;48.852;9.936;2024-02-04T13:15:37;1.67;;;0.63;;
47960;SDS011;33721;48.852;9.936;2024-02-04T13:18:07;1.13;;;0.60;;
47960;SDS011;33721;48.852;9.936;2024-02-04T13:20:33;2.58;;;0.63;;
47960;SDS011;33721;48.852;9.936;2024-02-04T13:22:58;1.45;;;0.60;;
47960;SDS011;33721;48.852;9.936;2024-02-04T13:25:30;1.00;;;0.50;;
47960;SDS011;33721;48.852;9.936;2024-02-04T13:27:56;1.38;;;0.60;;
47960;SDS011;33721;48.852;9.936;2024-02-04T13:30:22;0.65;;;0.43;;
47960;SDS011;33721;48.852;9.936;2024-02-04T13:32:47;7.57;;;0.88;;
47960;SDS011;33721;48.852;9.936;2024-02-04T13:35:13;2.22;;;0.63;;
47960;SDS011;33721;48.852;9.936;2024-02-04T13:37:42;1.55;;;0.50;;
47960;SDS011;33721;48.852;9.936;2024-02-04T13:40:13;2.97;;;0.98;;
47960;SDS011;33721;48.852;9.936;2024-02-04T13:42:39;1.05;;;0.50;;
47960;SDS011;33721;48.852;9.936;2024-02-04T13:45:05;0.80;;;0.50;;
47960;SDS011;33721;48.852;9.936;2024-02-04T13:47:31;4.63;;;0.75;;
47960;SDS011;33721;48.852;9.936;2024-02-04T13:49:57;1.20;;;0.50;;
47960;SDS011;33721;48.852;9.936;2024-02-04T13:52:22;2.25;;;0.63;;
47960;SDS011;33721;48.852;9.936;2024-02-04T13:54:49;1.15;;;0.45;;
47960;SDS011;33721;48.852;9.936;2024-02-04T13:57:15;0.95;;;0.45;;
47960;SDS011;33721;48.852;9.936;2024-02-04T13:59:40;0.65;;;0.40;;
47960;SDS011;33721;48.852;9.936;2024-02-04T14:02:06;0.98;;;0.40;;
47960;SDS011;33721;48.852;9.936;2024-02-04T14:04:34;1.98;;;0.40;;
47960;SDS011;33721;48.852;9.936;2024-02-04T14:07:00;1.30;;;0.50;;
47960;SDS011;33721;48.852;9.936;2024-02-04T14:09:26;0.52;;;0.20;;
47960;SDS011;33721;48.852;9.936;2024-02-04T14:11:53;0.50;;;0.20;;
47960;SDS011;33721;48.852;9.936;2024-02-04T14:14:20;0.70;;;0.40;;
47960;SDS011;33721;48.852;9.936;2024-02-04T14:16:46;0.85;;;0.30;;
47960;SDS011;33721;48.852;9.936;2024-02-04T14:19:12;0.85;;;0.20;;
47960;SDS011;33721;48.852;9.936;2024-02-04T14:21:38;0.75;;;0.20;;
47960;SDS011;33721;48.852;9.936;2024-02-04T14:24:05;0.28;;;0.22;;
47960;SDS011;33721;48.852;9.936;2024-02-04T14:26:31;0.90;;;0.40;;
47960;SDS011;33721;48.852;9.936;2024-02-04T14:28:57;0.75;;;0.20;;
47960;SDS011;33721;48.852;9.936;2024-02-04T14:31:23;0.98;;;0.32;;
47960;SDS011;33721;48.852;9.936;2024-02-04T14:33:48;0.95;;;0.30;;
47960;SDS011;33721;48.852;9.936;2024-02-04T14:36:14;0.88;;;0.30;;
47960;SDS011;33721;48.852;9.936;2024-02-04T14:38:40;3.30;;;0.28;;
47960;SDS011;33721;48.852;9.936;2024-02-04T14:41:05;1.20;;;0.32;;
47960;SDS011;33721;48.852;9.936;2024-02-04T14:43:31;1.02;;;0.43;;
47960;SDS011;33721;48.852;9.936;2024-02-04T14:45:57;0.93;;;0.30;;
47960;SDS011;33721;48.852;9.936;2024-02-04T14:48:23;0.88;;;0.38;;
47960;SDS011;33721;48.852;9.936;2024-02-04T14:50:49;0.80;;;0.40;;
47960;SDS011;33721;48.852;9.936;2024-02-04T14:53:15;0.70;;;0.30;;
47960;SDS011;33721;48.852;9.936;2024-02-04T14:55:40;1.10;;;0.40;;
47960;SDS011;33721;48.852;9.936;2024-02-04T14:58:06;0.70;;;0.45;;
47960;SDS011;33721;48.852;9.936;2024-02-04T15:00:32;0.73;;;0.25;;